sensor_id;sensor_type;location;lat;lon;timestamp;pressure;altitude;pressure_sealevel;temperature;humidity
68793;BME280;55778;54.346;10.210;2023-03-16T00:02:03;101544.34;;;0.78;100.00
68793;BME280;55778;54.346;10.210;2023-03-16T00:04:29;101548.38;;;0.68;100.00
68793;BME280;55778;54.346;10.210;2023-03-16T00:06:55;101545.25;;;0.57;100.00
68793;BME280;55778;54.346;10.210;2023-03-16T00:09:21;101542.44;;;0.60;100.00
68793;BME280;55778;54.346;10.210;2023-03-16T00:11:46;101545.19;;;0.58;100.00
68793;BME280;55778;54.346;10.210;2023-03-16T00:14:11;101533.94;;;0.50;100.00
68793;BME280;55778;54.346;10.210;2023-03-16T00:16:37;101547.84;;;0.38;100.00
68793;BME280;55778;54.346;10.210;2023-03-16T00:19:03;101547.25;;;0.30;100.00
68793;BME280;55778;54.346;10.210;2023-03-16T00:21:30;101541.66;;;0.36;100.00
68793;BME280;55778;54.346;10.210;2023-03-16T00:23:57;101545.28;;;0.35;100.00
68793;BME280;55778;54.346;10.210;2023-03-16T00:26:22;101547.41;;;0.49;100.00
68793;BME280;55778;54.346;10.210;2023-03-16T00:28:48;101554.56;;;0.48;100.00
68793;BME280;55778;54.346;10.210;2023-03-16T00:31:13;101545.44;;;0.74;100.00
68793;BME280;55778;54.346;10.210;2023-03-16T00:33:40;101540.59;;;0.82;100.00
68793;BME280;55778;54.346;10.210;2023-03-16T00:36:07;101540.53;;;0.83;100.00
68793;BME280;55778;54.346;10.210;2023-03-16T00:38:39;101547.84;;;0.80;100.00
68793;BME280;55778;54.346;10.210;2023-03-16T00:41:10;101543.41;;;0.79;100.00
68793;BME280;55778;54.346;10.210;2023-03-16T00:43:39;101546.97;;;0.79;100.00
68793;BME280;55778;54.346;10.210;2023-03-16T00:46:11;101543.75;;;0.71;100.00
68793;BME280;55778;54.346;10.210;2023-03-16T00:48:39;101543.19;;;0.63;100.00
68793;BME280;55778;54.346;10.210;2023-03-16T00:51:08;101548.75;;;0.59;100.00
68793;BME280;55778;54.346;10.210;2023-03-16T00:53:34;101546.81;;;0.62;100.00
68793;BME280;55778;54.346;10.210;2023-03-16T00:56:01;101558.78;;;0.54;100.00
68793;BME280;55778;54.346;10.210;2023-03-16T00:58:29;101553.06;;;0.41;100.00
68793;BME280;55778;54.346;10.210;2023-03-16T01:00:54;101551.53;;;0.36;100.00
68793;BME280;55778;54.346;10.210;2023-03-16T01:03:21;101553.06;;;0.20;100.00
68793;BME280;55778;54.346;10.210;2023-03-16T01:05:46;101547.81;;;0.17;100.00
68793;BME280;55778;54.346;10.210;2023-03-16T01:08:13;101554.31;;;0.33;100.00
68793;BME280;55778;54.346;10.210;2023-03-16T01:10:38;101555.88;;;0.38;100.00
68793;BME280;55778;54.346;10.210;2023-03-16T01:13:05;101550.13;;;0.26;100.00
68793;BME280;55778;54.346;10.210;2023-03-16T01:15:32;101549.94;;;0.30;100.00
68793;BME280;55778;54.346;10.210;2023-03-16T01:17:59;101544.88;;;0.23;100.00
68793;BME280;55778;54.346;10.210;2023-03-16T01:20:24;101549.13;;;0.07;100.00
68793;BME280;55778;54.346;10.210;2023-03-16T01:22:51;101544.91;;;-0.22;100.00
68793;BME280;55778;54.346;10.210;2023-03-16T01:25:16;101541.25;;;-0.43;100.00
68793;BME280;55778;54.346;10.210;2023-03-16T01:27:42;101553.34;;;-0.56;100.00
68793;BME280;55778;54.346;10.210;2023-03-16T01:30:08;101550.19;;;-0.67;100.00
68793;BME280;55778;54.346;10.210;2023-03-16T01:32:37;101552.06;;;-0.69;100.00
68793;BME280;55778;54.346;10.210;2023-03-16T01:35:05;101547.94;;;-0.54;100.00
68793;BME280;55778;54.346;10.210;2023-03-16T01:37:30;101550.66;;;-0.33;100.00
68793;BME280;55778;54.346;10.210;2023-03-16T01:39:56;101546.53;;;-0.18;100.00
68793;BME280;55778;54.346;10.210;2023-03-16T01:42:21;101542.34;;;-0.25;100.00
68793;BME280;55778;54.346;10.210;2023-03-16T01:47:15;101541.94;;;-0.38;100.00
68793;BME280;55778;54.346;10.210;2023-03-16T01:49:40;101538.69;;;-0.46;100.00
68793;BME280;55778;54.346;10.210;2023-03-16T01:52:21;101543.41;;;-0.52;100.00
68793;BME280;55778;54.346;10.210;2023-03-16T01:54:51;101537.66;;;-0.42;100.00
68793;BME280;55778;54.346;10.210;2023-03-16T01:57:21;101536.94;;;-0.47;100.00
68793;BME280;55778;54.346;10.210;2023-03-16T01:59:52;101533.44;;;-0.49;100.00
68793;BME280;55778;54.346;10.210;2023-03-16T02:02:21;101528.25;;;-0.53;100.00
68793;BME280;55778;54.346;10.210;2023-03-16T02:05:01;101534.66;;;-0.57;100.00
68793;BME280;55778;54.346;10.210;2023-03-16T02:07:33;101532.94;;;-0.58;100.00
68793;BME280;55778;54.346;10.210;2023-03-16T02:10:03;101528.66;;;-0.64;100.00
68793;BME280;55778;54.346;10.210;2023-03-16T02:12:29;101527.03;;;-0.68;100.00
68793;BME280;55778;54.346;10.210;2023-03-16T02:14:55;101534.22;;;-0.70;100.00
68793;BME280;55778;54.346;10.210;2023-03-16T02:17:23;101529.75;;;-0.69;100.00
68793;BME280;55778;54.346;10.210;2023-03-16T02:22:48;101529.09;;;-0.74;100.00
68793;BME280;55778;54.346;10.210;2023-03-16T02:25:16;101528.38;;;-0.79;100.00
68793;BME280;55778;54.346;10.210;2023-03-16T02:30:17;101528.47;;;-0.82;100.00
68793;BME280;55778;54.346;10.210;2023-03-16T02:32:45;101532.94;;;-0.83;100.00
68793;BME280;55778;54.346;10.210;2023-03-16T02:35:12;101523.44;;;-0.91;100.00
68793;BME280;55778;54.346;10.210;2023-03-16T02:37:39;101527.97;;;-0.93;100.00
68793;BME280;55778;54.346;10.210;2023-03-16T02:42:53;101530.53;;;-0.90;100.00
68793;BME280;55778;54.346;10.210;2023-03-16T02:45:22;101523.50;;;-0.93;100.00
68793;BME280;55778;54.346;10.210;2023-03-16T02:47:51;101528.81;;;-0.91;100.00
68793;BME280;55778;54.346;10.210;2023-03-16T02:50:18;101524.41;;;-0.92;100.00
68793;BME280;55778;54.346;10.210;2023-03-16T02:52:43;101528.81;;;-0.91;100.00
68793;BME280;55778;54.346;10.210;2023-03-16T02:55:09;101528.84;;;-0.93;100.00
68793;BME280;55778;54.346;10.210;2023-03-16T02:57:35;101530.66;;;-0.93;100.00
68793;BME280;55778;54.346;10.210;2023-03-16T03:00:00;101527.19;;;-0.95;100.00
68793;BME280;55778;54.346;10.210;2023-03-16T03:02:26;101530.47;;;-0.89;100.00
68793;BME280;55778;54.346;10.210;2023-03-16T03:04:51;101533.94;;;-0.85;100.00
68793;BME280;55778;54.346;10.210;2023-03-16T03:07:19;101531.16;;;-0.82;100.00
68793;BME280;55778;54.346;10.210;2023-03-16T03:09:45;101533.72;;;-0.79;100.00
68793;BME280;55778;54.346;10.210;2023-03-16T03:12:11;101532.72;;;-0.77;100.00
68793;BME280;55778;54.346;10.210;2023-03-16T03:14:37;101537.00;;;-0.73;100.00
68793;BME280;55778;54.346;10.210;2023-03-16T03:17:07;101534.16;;;-0.68;100.00
68793;BME280;55778;54.346;10.210;2023-03-16T03:19:33;101543.09;;;-0.68;100.00
68793;BME280;55778;54.346;10.210;2023-03-16T03:22:00;101535.94;;;-0.67;100.00
68793;BME280;55778;54.346;10.210;2023-03-16T03:24:29;101535.84;;;-0.64;100.00
68793;BME280;55778;54.346;10.210;2023-03-16T03:26:54;101523.25;;;-0.62;100.00
68793;BME280;55778;54.346;10.210;2023-03-16T03:29:20;101525.88;;;-0.61;100.00
68793;BME280;55778;54.346;10.210;2023-03-16T03:31:45;101517.94;;;-0.64;100.00
68793;BME280;55778;54.346;10.210;2023-03-16T03:34:10;101519.72;;;-0.63;100.00
68793;BME280;55778;54.346;10.210;2023-03-16T03:36:36;101525.91;;;-0.62;100.00
68793;BME280;55778;54.346;10.210;2023-03-16T03:39:02;101520.63;;;-0.64;100.00
68793;BME280;55778;54.346;10.210;2023-03-16T03:41:30;101519.72;;;-0.63;100.00
68793;BME280;55778;54.346;10.210;2023-03-16T03:43:57;101525.00;;;-0.61;100.00
68793;BME280;55778;54.346;10.210;2023-03-16T03:46:23;101526.91;;;-0.65;100.00
68793;BME280;55778;54.346;10.210;2023-03-16T03:48:48;101530.31;;;-0.60;100.00
68793;BME280;55778;54.346;10.210;2023-03-16T03:51:14;101535.53;;;-0.57;100.00
68793;BME280;55778;54.346;10.210;2023-03-16T03:53:39;101540.00;;;-0.57;100.00
68793;BME280;55778;54.346;10.210;2023-03-16T03:56:05;101533.66;;;-0.55;100.00
68793;BME280;55778;54.346;10.210;2023-03-16T03:58:31;101526.47;;;-0.53;100.00
68793;BME280;55778;54.346;10.210;2023-03-16T04:00:56;101533.84;;;-0.59;100.00
68793;BME280;55778;54.346;10.210;2023-03-16T04:03:21;101532.69;;;-0.52;100.00
68793;BME280;55778;54.346;10.210;2023-03-16T04:05:47;101529.09;;;-0.51;100.00
68793;BME280;55778;54.346;10.210;2023-03-16T04:08:12;101526.00;;;-0.41;100.00
68793;BME280;55778;54.346;10.210;2023-03-16T04:10:37;101534.66;;;-0.34;100.00
68793;BME280;55778;54.346;10.210;2023-03-16T04:13:03;101529.34;;;-0.36;100.00
68793;BME280;55778;54.346;10.210;2023-03-16T04:15:29;101535.59;;;-0.35;100.00
68793;BME280;55778;54.346;10.210;2023-03-16T04:17:54;101530.25;;;-0.35;100.00
68793;BME280;55778;54.346;10.210;2023-03-16T04:20:19;101534.66;;;-0.34;100.00
68793;BME280;55778;54.346;10.210;2023-03-16T04:22:47;101542.63;;;-0.33;100.00
68793;BME280;55778;54.346;10.210;2023-03-16T04:25:14;101541.84;;;-0.35;100.00
68793;BME280;55778;54.346;10.210;2023-03-16T04:27:40;101540.84;;;-0.32;100.00
68793;BME280;55778;54.346;10.210;2023-03-16T04:30:12;101533.84;;;-0.36;100.00
68793;BME280;55778;54.346;10.210;2023-03-16T04:32:38;101536.38;;;-0.32;100.00
68793;BME280;55778;54.346;10.210;2023-03-16T04:35:04;101546.19;;;-0.32;100.00
68793;BME280;55778;54.346;10.210;2023-03-16T04:37:30;101546.25;;;-0.34;100.00
68793;BME280;55778;54.346;10.210;2023-03-16T04:39:56;101544.41;;;-0.32;100.00
68793;BME280;55778;54.346;10.210;2023-03-16T04:42:21;101541.72;;;-0.32;100.00
68793;BME280;55778;54.346;10.210;2023-03-16T04:44:47;101538.97;;;-0.30;100.00
68793;BME280;55778;54.346;10.210;2023-03-16T04:47:14;101543.41;;;-0.29;100.00
68793;BME280;55778;54.346;10.210;2023-03-16T04:49:40;101542.41;;;-0.27;100.00
68793;BME280;55778;54.346;10.210;2023-03-16T04:52:06;101536.97;;;-0.25;100.00
68793;BME280;55778;54.346;10.210;2023-03-16T04:54:31;101535.19;;;-0.25;100.00
68793;BME280;55778;54.346;10.210;2023-03-16T04:56:57;101528.03;;;-0.24;100.00
68793;BME280;55778;54.346;10.210;2023-03-16T04:59:23;101524.47;;;-0.25;100.00
68793;BME280;55778;54.346;10.210;2023-03-16T05:01:49;101536.97;;;-0.25;100.00
68793;BME280;55778;54.346;10.210;2023-03-16T05:04:14;101531.84;;;-0.31;100.00
68793;BME280;55778;54.346;10.210;2023-03-16T05:06:40;101536.47;;;-0.35;100.00
68793;BME280;55778;54.346;10.210;2023-03-16T05:09:06;101536.53;;;-0.36;100.00
68793;BME280;55778;54.346;10.210;2023-03-16T05:11:36;101531.19;;;-0.36;100.00
68793;BME280;55778;54.346;10.210;2023-03-16T05:14:02;101534.81;;;-0.37;100.00
68793;BME280;55778;54.346;10.210;2023-03-16T05:16:28;101534.72;;;-0.36;100.00
68793;BME280;55778;54.346;10.210;2023-03-16T05:18:57;101534.66;;;-0.34;100.00
68793;BME280;55778;54.346;10.210;2023-03-16T05:21:23;101539.09;;;-0.33;100.00
68793;BME280;55778;54.346;10.210;2023-03-16T05:23:48;101540.88;;;-0.34;100.00
68793;BME280;55778;54.346;10.210;2023-03-16T05:26:13;101544.28;;;-0.29;100.00
68793;BME280;55778;54.346;10.210;2023-03-16T05:28:39;101539.53;;;-0.22;100.00
68793;BME280;55778;54.346;10.210;2023-03-16T05:31:04;101549.50;;;-0.26;100.00
68793;BME280;55778;54.346;10.210;2023-03-16T05:33:30;101555.84;;;-0.28;100.00
68793;BME280;55778;54.346;10.210;2023-03-16T05:35:56;101550.53;;;-0.30;100.00
68793;BME280;55778;54.346;10.210;2023-03-16T05:38:23;101552.25;;;-0.27;100.00
68793;BME280;55778;54.346;10.210;2023-03-16T05:40:49;101561.91;;;-0.23;100.00
68793;BME280;55778;54.346;10.210;2023-03-16T05:43:19;101561.84;;;-0.22;100.00
68793;BME280;55778;54.346;10.210;2023-03-16T05:45:46;101563.53;;;-0.19;100.00
68793;BME280;55778;54.346;10.210;2023-03-16T05:48:12;101566.91;;;-0.14;100.00
68793;BME280;55778;54.346;10.210;2023-03-16T05:50:37;101563.16;;;-0.10;100.00
68793;BME280;55778;54.346;10.210;2023-03-16T05:53:03;101563.94;;;-0.07;100.00
68793;BME280;55778;54.346;10.210;2023-03-16T05:55:28;101563.94;;;-0.07;100.00
68793;BME280;55778;54.346;10.210;2023-03-16T05:57:54;101562.88;;;-0.03;100.00
68793;BME280;55778;54.346;10.210;2023-03-16T06:00:20;101568.88;;;0.04;100.00
68793;BME280;55778;54.346;10.210;2023-03-16T06:02:47;101565.03;;;0.11;100.00
68793;BME280;55778;54.346;10.210;2023-03-16T06:05:15;101562.91;;;0.19;100.00
68793;BME280;55778;54.346;10.210;2023-03-16T06:07:40;101562.75;;;0.24;100.00
68793;BME280;55778;54.346;10.210;2023-03-16T06:10:06;101560.59;;;0.32;100.00
68793;BME280;55778;54.346;10.210;2023-03-16T06:12:32;101562.91;;;0.41;100.00
68793;BME280;55778;54.346;10.210;2023-03-16T06:14:59;101562.28;;;0.56;100.00
68793;BME280;55778;54.346;10.210;2023-03-16T06:17:25;101563.81;;;0.61;100.00
68793;BME280;55778;54.346;10.210;2023-03-16T06:19:53;101559.03;;;0.69;100.00
68793;BME280;55778;54.346;10.210;2023-03-16T06:22:19;101560.56;;;0.75;100.00
68793;BME280;55778;54.346;10.210;2023-03-16T06:24:44;101556.63;;;0.83;100.00
68793;BME280;55778;54.346;10.210;2023-03-16T06:27:10;101560.41;;;0.99;100.00
68793;BME280;55778;54.346;10.210;2023-03-16T06:29:35;101563.75;;;1.04;100.00
68793;BME280;55778;54.346;10.210;2023-03-16T06:32:01;101558.31;;;1.06;100.00
68793;BME280;55778;54.346;10.210;2023-03-16T06:34:26;101558.00;;;1.13;100.00
68793;BME280;55778;54.346;10.210;2023-03-16T06:36:52;101555.31;;;1.13;100.00
68793;BME280;55778;54.346;10.210;2023-03-16T06:39:17;101552.22;;;1.22;100.00
68793;BME280;55778;54.346;10.210;2023-03-16T06:41:42;101549.19;;;1.30;100.00
68793;BME280;55778;54.346;10.210;2023-03-16T06:44:09;101548.94;;;1.36;100.00
68793;BME280;55778;54.346;10.210;2023-03-16T06:46:35;101551.91;;;1.48;100.00
68793;BME280;55778;54.346;10.210;2023-03-16T06:49:01;101549.97;;;1.52;100.00
68793;BME280;55778;54.346;10.210;2023-03-16T06:51:27;101557.47;;;1.64;100.00
68793;BME280;55778;54.346;10.210;2023-03-16T06:53:52;101560.00;;;1.67;100.00
68793;BME280;55778;54.346;10.210;2023-03-16T06:56:18;101564.66;;;1.63;100.00
68793;BME280;55778;54.346;10.210;2023-03-16T06:58:43;101576.28;;;1.64;100.00
68793;BME280;55778;54.346;10.210;2023-03-16T07:01:09;101581.78;;;1.61;100.00
68793;BME280;55778;54.346;10.210;2023-03-16T07:03:34;101582.38;;;1.67;100.00
68793;BME280;55778;54.346;10.210;2023-03-16T07:05:59;101578.22;;;1.60;100.00
68793;BME280;55778;54.346;10.210;2023-03-16T07:08:25;101580.13;;;1.58;100.00
68793;BME280;55778;54.346;10.210;2023-03-16T07:10:51;101574.53;;;1.63;100.00
68793;BME280;55778;54.346;10.210;2023-03-16T07:13:16;101570.56;;;1.71;100.00
68793;BME280;55778;54.346;10.210;2023-03-16T07:15:42;101574.63;;;1.80;100.00
68793;BME280;55778;54.346;10.210;2023-03-16T07:18:09;101571.44;;;1.90;99.72
68793;BME280;55778;54.346;10.210;2023-03-16T07:20:36;101576.47;;;1.98;99.61
68793;BME280;55778;54.346;10.210;2023-03-16T07:23:02;101578.03;;;2.02;98.92
68793;BME280;55778;54.346;10.210;2023-03-16T07:25:29;101582.13;;;2.11;98.33
68793;BME280;55778;54.346;10.210;2023-03-16T07:27:54;101579.72;;;2.23;97.83
68793;BME280;55778;54.346;10.210;2023-03-16T07:30:19;101573.97;;;2.31;97.20
68793;BME280;55778;54.346;10.210;2023-03-16T07:32:45;101577.41;;;2.34;96.49
68793;BME280;55778;54.346;10.210;2023-03-16T07:35:10;101583.25;;;2.42;95.50
68793;BME280;55778;54.346;10.210;2023-03-16T07:37:38;101585.81;;;2.45;94.79
68793;BME280;55778;54.346;10.210;2023-03-16T07:40:04;101578.16;;;2.55;93.80
68793;BME280;55778;54.346;10.210;2023-03-16T07:42:33;101584.81;;;2.65;93.89
68793;BME280;55778;54.346;10.210;2023-03-16T07:44:59;101579.88;;;2.74;91.86
68793;BME280;55778;54.346;10.210;2023-03-16T07:47:25;101585.34;;;2.90;91.24
68793;BME280;55778;54.346;10.210;2023-03-16T07:49:51;101587.56;;;2.99;90.48
68793;BME280;55778;54.346;10.210;2023-03-16T07:52:16;101580.53;;;2.96;89.42
68793;BME280;55778;54.346;10.210;2023-03-16T07:54:42;101582.03;;;3.02;89.00
68793;BME280;55778;54.346;10.210;2023-03-16T07:57:09;101587.69;;;3.14;88.56
68793;BME280;55778;54.346;10.210;2023-03-16T07:59:36;101582.13;;;3.17;88.04
68793;BME280;55778;54.346;10.210;2023-03-16T08:02:02;101582.53;;;3.10;86.78
68793;BME280;55778;54.346;10.210;2023-03-16T08:04:28;101579.34;;;3.19;85.91
68793;BME280;55778;54.346;10.210;2023-03-16T08:06:53;101578.97;;;3.26;85.54
68793;BME280;55778;54.346;10.210;2023-03-16T08:09:25;101572.22;;;3.35;84.84
68793;BME280;55778;54.346;10.210;2023-03-16T08:11:50;101571.41;;;3.50;83.89
68793;BME280;55778;54.346;10.210;2023-03-16T08:14:16;101571.28;;;3.68;84.25
68793;BME280;55778;54.346;10.210;2023-03-16T08:16:41;101576.97;;;3.79;82.31
68793;BME280;55778;54.346;10.210;2023-03-16T08:19:06;101585.31;;;3.75;80.75
68793;BME280;55778;54.346;10.210;2023-03-16T08:21:32;101578.16;;;3.74;80.43
68793;BME280;55778;54.346;10.210;2023-03-16T08:23:58;101584.72;;;3.85;79.46
68793;BME280;55778;54.346;10.210;2023-03-16T08:26:24;101582.22;;;3.98;78.95
68793;BME280;55778;54.346;10.210;2023-03-16T08:28:51;101577.00;;;3.95;78.47
68793;BME280;55778;54.346;10.210;2023-03-16T08:31:17;101582.22;;;3.98;78.69
68793;BME280;55778;54.346;10.210;2023-03-16T08:33:45;101577.28;;;4.06;77.68
68793;BME280;55778;54.346;10.210;2023-03-16T08:36:15;101580.94;;;4.21;77.30
68793;BME280;55778;54.346;10.210;2023-03-16T08:38:41;101577.66;;;4.31;76.69
68793;BME280;55778;54.346;10.210;2023-03-16T08:41:07;101580.06;;;4.51;75.81
68793;BME280;55778;54.346;10.210;2023-03-16T08:43:34;101573.75;;;4.52;74.62
68793;BME280;55778;54.346;10.210;2023-03-16T08:46:02;101568.50;;;4.65;73.94
68793;BME280;55778;54.346;10.210;2023-03-16T08:48:29;101573.81;;;4.66;73.82
68793;BME280;55778;54.346;10.210;2023-03-16T08:50:55;101560.75;;;4.74;73.84
68793;BME280;55778;54.346;10.210;2023-03-16T08:53:20;101569.06;;;4.85;72.82
68793;BME280;55778;54.346;10.210;2023-03-16T08:55:46;101569.84;;;4.87;72.15
68793;BME280;55778;54.346;10.210;2023-03-16T08:58:12;101572.19;;;4.93;71.67
68793;BME280;55778;54.346;10.210;2023-03-16T09:00:38;101567.16;;;4.87;71.59
68793;BME280;55778;54.346;10.210;2023-03-16T09:03:04;101571.75;;;4.85;71.43
68793;BME280;55778;54.346;10.210;2023-03-16T09:05:30;101568.84;;;4.74;70.85
68793;BME280;55778;54.346;10.210;2023-03-16T09:07:57;101570.16;;;4.67;72.11
68793;BME280;55778;54.346;10.210;2023-03-16T09:10:23;101568.75;;;4.76;71.58
68793;BME280;55778;54.346;10.210;2023-03-16T09:12:49;101563.38;;;4.90;70.68
68793;BME280;55778;54.346;10.210;2023-03-16T09:15:17;101560.13;;;5.14;70.25
68793;BME280;55778;54.346;10.210;2023-03-16T09:17:44;101569.47;;;5.09;68.84
68793;BME280;55778;54.346;10.210;2023-03-16T09:20:11;101557.00;;;5.06;68.04
68793;BME280;55778;54.346;10.210;2023-03-16T09:22:37;101563.81;;;4.98;68.39
68793;BME280;55778;54.346;10.210;2023-03-16T09:25:06;101562.41;;;5.06;69.25
68793;BME280;55778;54.346;10.210;2023-03-16T09:27:33;101561.47;;;5.07;68.34
68793;BME280;55778;54.346;10.210;2023-03-16T09:30:01;101562.00;;;4.98;67.07
68793;BME280;55778;54.346;10.210;2023-03-16T09:32:27;101563.47;;;4.88;68.81
68793;BME280;55778;54.346;10.210;2023-03-16T09:34:54;101559.31;;;4.98;69.37
68793;BME280;55778;54.346;10.210;2023-03-16T09:37:20;101550.66;;;5.07;68.35
68793;BME280;55778;54.346;10.210;2023-03-16T09:39:47;101563.56;;;5.16;68.82
68793;BME280;55778;54.346;10.210;2023-03-16T09:42:32;101556.59;;;5.28;69.41
68793;BME280;55778;54.346;10.210;2023-03-16T09:47:28;101562.69;;;5.45;67.59
68793;BME280;55778;54.346;10.210;2023-03-16T09:49:57;101557.09;;;5.48;66.80
68793;BME280;55778;54.346;10.210;2023-03-16T09:52:27;101558.47;;;5.55;66.95
68793;BME280;55778;54.346;10.210;2023-03-16T09:55:32;101547.59;;;5.85;65.81
68793;BME280;55778;54.346;10.210;2023-03-16T10:04:52;101548.25;;;6.17;61.75
68793;BME280;55778;54.346;10.210;2023-03-16T10:10:15;101545.66;;;6.01;61.15
68793;BME280;55778;54.346;10.210;2023-03-16T10:12:46;101546.53;;;6.16;61.34
68793;BME280;55778;54.346;10.210;2023-03-16T10:15:17;101546.69;;;6.27;60.84
68793;BME280;55778;54.346;10.210;2023-03-16T10:17:53;101536.47;;;6.58;60.45
68793;BME280;55778;54.346;10.210;2023-03-16T10:20:23;101527.56;;;6.83;59.04
68793;BME280;55778;54.346;10.210;2023-03-16T10:22:51;101525.47;;;7.13;58.71
68793;BME280;55778;54.346;10.210;2023-03-16T10:27:57;101526.03;;;7.30;56.34
68793;BME280;55778;54.346;10.210;2023-03-16T10:30:33;101518.06;;;6.90;55.78
68793;BME280;55778;54.346;10.210;2023-03-16T10:33:02;101521.13;;;7.10;56.76
68793;BME280;55778;54.346;10.210;2023-03-16T10:35:50;101524.91;;;7.08;55.69
68793;BME280;55778;54.346;10.210;2023-03-16T10:43:43;101525.22;;;6.64;55.32
68793;BME280;55778;54.346;10.210;2023-03-16T10:46:09;101516.47;;;6.73;56.38
68793;BME280;55778;54.346;10.210;2023-03-16T10:48:36;101509.72;;;6.93;55.81
68793;BME280;55778;54.346;10.210;2023-03-16T10:51:06;101505.16;;;6.93;55.09
68793;BME280;55778;54.346;10.210;2023-03-16T10:53:34;101506.63;;;7.36;55.70
68793;BME280;55778;54.346;10.210;2023-03-16T10:56:12;101504.03;;;7.35;53.46
68793;BME280;55778;54.346;10.210;2023-03-16T10:58:44;101498.94;;;7.55;54.71
68793;BME280;55778;54.346;10.210;2023-03-16T11:01:17;101503.81;;;7.63;54.12
68793;BME280;55778;54.346;10.210;2023-03-16T11:03:47;101495.34;;;7.42;53.99
68793;BME280;55778;54.346;10.210;2023-03-16T11:06:22;101493.41;;;7.69;53.16
68793;BME280;55778;54.346;10.210;2023-03-16T11:08:52;101493.28;;;7.58;54.71
68793;BME280;55778;54.346;10.210;2023-03-16T11:13:46;101489.59;;;7.72;53.59
68793;BME280;55778;54.346;10.210;2023-03-16T11:19:17;101474.41;;;7.32;52.69
68793;BME280;55778;54.346;10.210;2023-03-16T11:22:20;101479.72;;;7.33;53.69
68793;BME280;55778;54.346;10.210;2023-03-16T11:27:36;101464.78;;;7.28;53.34
68793;BME280;55778;54.346;10.210;2023-03-16T11:32:38;101453.16;;;7.26;52.96
68793;BME280;55778;54.346;10.210;2023-03-16T11:35:16;101450.25;;;7.29;52.53
68793;BME280;55778;54.346;10.210;2023-03-16T11:46:08;101433.09;;;7.53;50.61
68793;BME280;55778;54.346;10.210;2023-03-16T11:48:39;101431.69;;;7.60;49.48
68793;BME280;55778;54.346;10.210;2023-03-16T11:54:05;101426.31;;;7.84;47.33
68793;BME280;55778;54.346;10.210;2023-03-16T11:56:38;101428.94;;;7.73;44.04
68793;BME280;55778;54.346;10.210;2023-03-16T12:02:14;101424.59;;;7.70;44.96
68793;BME280;55778;54.346;10.210;2023-03-16T12:11:05;101413.69;;;7.47;42.72
68793;BME280;55778;54.346;10.210;2023-03-16T12:16:14;101407.16;;;7.49;42.20
68793;BME280;55778;54.346;10.210;2023-03-16T12:18:46;101406.22;;;7.38;42.98
68793;BME280;55778;54.346;10.210;2023-03-16T12:21:21;101398.69;;;7.54;43.48
68793;BME280;55778;54.346;10.210;2023-03-16T12:23:50;101389.28;;;7.59;42.99
68793;BME280;55778;54.346;10.210;2023-03-16T12:26:17;101392.22;;;7.56;43.43
68793;BME280;55778;54.346;10.210;2023-03-16T12:28:43;101390.66;;;7.52;42.42
68793;BME280;55778;54.346;10.210;2023-03-16T12:38:49;101369.78;;;7.78;41.63
68793;BME280;55778;54.346;10.210;2023-03-16T12:44:18;101373.59;;;7.75;42.51
68793;BME280;55778;54.346;10.210;2023-03-16T12:49:13;101364.56;;;8.11;41.28
68793;BME280;55778;54.346;10.210;2023-03-16T12:51:41;101352.59;;;8.13;40.54
68793;BME280;55778;54.346;10.210;2023-03-16T12:54:23;101343.22;;;8.17;39.37
68793;BME280;55778;54.346;10.210;2023-03-16T12:56:51;101342.63;;;8.38;38.71
68793;BME280;55778;54.346;10.210;2023-03-16T12:59:22;101340.56;;;8.41;36.22
68793;BME280;55778;54.346;10.210;2023-03-16T13:01:58;101333.66;;;8.59;36.82
68793;BME280;55778;54.346;10.210;2023-03-16T13:04:32;101318.72;;;8.43;35.40
68793;BME280;55778;54.346;10.210;2023-03-16T13:07:08;101334.59;;;8.36;36.66
68793;BME280;55778;54.346;10.210;2023-03-16T13:09:40;101317.31;;;8.37;35.60
68793;BME280;55778;54.346;10.210;2023-03-16T13:12:08;101307.94;;;8.17;34.25
68793;BME280;55778;54.346;10.210;2023-03-16T13:14:40;101320.00;;;8.26;35.73
68793;BME280;55778;54.346;10.210;2023-03-16T13:19:45;101328.94;;;8.15;34.40
68793;BME280;55778;54.346;10.210;2023-03-16T13:22:46;101312.34;;;8.07;33.66
68793;BME280;55778;54.346;10.210;2023-03-16T13:25:22;101327.06;;;7.92;34.38
68793;BME280;55778;54.346;10.210;2023-03-16T13:27:53;101320.69;;;7.93;33.55
68793;BME280;55778;54.346;10.210;2023-03-16T13:30:22;101298.50;;;7.99;34.34
68793;BME280;55778;54.346;10.210;2023-03-16T13:32:56;101291.38;;;8.09;34.89
68793;BME280;55778;54.346;10.210;2023-03-16T13:35:26;101282.53;;;8.18;35.29
68793;BME280;55778;54.346;10.210;2023-03-16T13:37:54;101284.13;;;8.34;36.00
68793;BME280;55778;54.346;10.210;2023-03-16T13:40:22;101289.31;;;8.37;34.04
68793;BME280;55778;54.346;10.210;2023-03-16T13:42:49;101286.94;;;8.32;33.96
68793;BME280;55778;54.346;10.210;2023-03-16T13:45:26;101270.13;;;8.27;34.77
68793;BME280;55778;54.346;10.210;2023-03-16T13:47:52;101273.63;;;8.40;36.40
68793;BME280;55778;54.346;10.210;2023-03-16T13:50:18;101268.91;;;8.31;36.05
68793;BME280;55778;54.346;10.210;2023-03-16T13:52:57;101267.34;;;8.16;35.70
68793;BME280;55778;54.346;10.210;2023-03-16T13:55:34;101261.66;;;8.19;35.51
68793;BME280;55778;54.346;10.210;2023-03-16T13:58:01;101252.13;;;8.26;35.72
68793;BME280;55778;54.346;10.210;2023-03-16T14:00:34;101250.66;;;8.33;35.07
68793;BME280;55778;54.346;10.210;2023-03-16T14:03:10;101251.56;;;8.21;34.51
68793;BME280;55778;54.346;10.210;2023-03-16T14:05:38;101262.75;;;8.29;35.11